^^
Station Historical Data
Daily Summary for July 15, 2017 Units:  English    Metric   Both
« Previous Day
Next Day »
Daily Weekly Monthly Yearly Custom
  High: Low: Average:
Temperature: 82.6 °F 64.8 °F 73.2 °F
Dew Point: 70.8 °F 62.1 °F 65.4 °F
Humidity: 98% 54% 79%
Wind Speed: 3.0mph 0.0mph 0.6mph
Wind Gust: 10.0mph - -
Wind- - SW
Pressure: 29.98 in 29.88 in -
Precipitation: 0.02 in    
Historical Graphs
 
 
Tabular Data for July 15, 2017
Time Temperature Dew Point Pressure Wind Wind Speed Wind Gust Humidity Rainfall Rate (Hourly) Conditions
00:00 65.7 °F 65.1 °F 29.98 in NNW 1.0 mph 3.0 mph 98% 0.01 in RA
00:15 65.6 °F 65.0 °F 29.97 in Calm   1.0 mph 98% 0.00 in CLR
00:30 65.5 °F 64.9 °F 29.97 in Calm   1.0 mph 98% 0.00 in CLR
00:45 65.3 °F 64.7 °F 29.97 in Calm   4.0 mph 98% 0.00 in CLR
01:00 65.2 °F 64.6 °F 29.98 in SSE 1.0 mph 4.0 mph 98% 0.00 in CLR
02:15 65.2 °F 64.6 °F 29.96 in Calm   6.0 mph 98% 0.00 in CLR
02:30 65.2 °F 64.6 °F 29.96 in WNW 1.0 mph 3.0 mph 98% 0.00 in CLR
02:45 65.2 °F 64.6 °F 29.96 in Calm   3.0 mph 98% 0.00 in CLR
03:00 65.2 °F 64.6 °F 29.96 in Calm   3.0 mph 98% 0.00 in CLR
03:15 65.2 °F 64.6 °F 29.95 in Calm   2.0 mph 98% 0.00 in CLR
03:30 65.2 °F 64.6 °F 29.95 in Calm   1.0 mph 98% 0.00 in CLR
03:45 65.1 °F 64.5 °F 29.95 in Calm     98% 0.00 in CLR
04:00 65.1 °F 64.5 °F 29.94 in Calm   1.0 mph 98% 0.01 in
04:15 65.2 °F 64.6 °F 29.94 in Calm   1.0 mph 98% 0.00 in
04:30 65.1 °F 64.5 °F 29.95 in Calm   1.0 mph 98% 0.00 in
04:45 65.0 °F 64.4 °F 29.95 in Calm   1.0 mph 98% 0.01 in RA
05:00 65.1 °F 64.5 °F 29.94 in Calm   1.0 mph 98% 0.00 in
05:15 65.0 °F 64.4 °F 29.94 in Calm   1.0 mph 98% 0.00 in
05:30 64.8 °F 64.2 °F 29.94 in Calm   1.0 mph 98% 0.00 in
05:45 64.8 °F 64.2 °F 29.94 in Calm   1.0 mph 98% 0.00 in CLR
06:00 64.8 °F 64.2 °F 29.93 in Calm   1.0 mph 98% 0.00 in CLR
06:15 65.0 °F 64.4 °F 29.94 in Calm     98% 0.00 in -DZ
06:30 65.0 °F 64.4 °F 29.95 in Calm     98% 0.00 in -DZ
06:45 65.1 °F 64.5 °F 29.95 in Calm     98% 0.00 in -DZ
07:00 65.4 °F 64.8 °F 29.96 in Calm     98% 0.00 in -DZ
07:15 65.6 °F 65.0 °F 29.95 in Calm     98% 0.00 in CLR
07:30 65.9 °F 65.3 °F 29.96 in Calm   1.0 mph 98% 0.00 in CLR
07:45 66.1 °F 65.5 °F 29.96 in Calm     98% 0.00 in CLR
08:00 66.3 °F 65.7 °F 29.96 in Calm     98% 0.00 in CLR
08:15 66.8 °F 66.2 °F 29.97 in Calm   1.0 mph 98% 0.00 in CLR
08:30 67.2 °F 66.7 °F 29.97 in Calm   1.0 mph 98% 0.00 in CLR
08:45 67.7 °F 67.1 °F 29.97 in SW 1.0 mph 3.0 mph 98% 0.00 in CLR
09:00 67.7 °F 67.1 °F 29.96 in Calm   2.0 mph 98% 0.00 in CLR
09:15 68.5 °F 67.9 °F 29.96 in Calm   2.0 mph 98% 0.00 in CLR
09:30 69.6 °F 68.7 °F 29.95 in Calm   3.0 mph 97% 0.00 in CLR
09:45 71.0 °F 70.1 °F 29.95 in Calm   4.0 mph 97% 0.00 in
10:00 71.8 °F 69.4 °F 29.95 in Calm   4.0 mph 92% 0.00 in
10:30 75.0 °F 70.8 °F 29.94 in Calm   3.0 mph 87% 0.00 in SCT
10:45 76.6 °F 70.3 °F 29.95 in SW 1.0 mph 5.0 mph 81% 0.00 in SCT
11:00 77.6 °F 70.6 °F 29.94 in South 2.0 mph 5.0 mph 79% 0.00 in SCT
11:15 76.6 °F 69.6 °F 29.94 in Calm   5.0 mph 79% 0.00 in BKN
11:30 77.4 °F 70.0 °F 29.94 in Calm   2.0 mph 78% 0.00 in BKN
11:45 77.6 °F 70.6 °F 29.94 in Calm   4.0 mph 79% 0.00 in BKN
12:00 78.1 °F 70.3 °F 29.94 in West 2.0 mph 5.0 mph 77% 0.00 in BKN
12:15 78.1 °F 69.5 °F 29.94 in Calm   5.0 mph 75% 0.00 in SCT
12:30 79.8 °F 69.6 °F 29.94 in SW 1.0 mph 5.0 mph 71% 0.00 in SCT
12:45 79.9 °F 69.2 °F 29.93 in North 1.0 mph 6.0 mph 70% 0.00 in SCT
13:00 80.4 °F 68.0 °F 29.93 in WNW 3.0 mph 8.0 mph 66% 0.00 in SCT
13:15 79.9 °F 67.1 °F 29.92 in Calm   8.0 mph 65% 0.00 in SCT
13:30 81.3 °F 67.0 °F 29.92 in NNW 3.0 mph 6.0 mph 62% 0.00 in SCT
13:45 82.5 °F 67.2 °F 29.91 in ENE 2.0 mph 6.0 mph 60% 0.00 in SCT
14:00 82.3 °F 66.6 °F 29.91 in NW 2.0 mph 6.0 mph 59% 0.00 in SCT
14:15 81.3 °F 66.6 °F 29.91 in NW 2.0 mph 8.0 mph 61% 0.00 in SCT
14:30 81.4 °F 67.1 °F 29.91 in ENE 3.0 mph 10.0 mph 62% 0.00 in SCT
14:45 82.3 °F 67.0 °F 29.91 in NNE 1.0 mph 9.0 mph 60% 0.00 in SCT
15:00 82.3 °F 65.5 °F 29.91 in WNW 1.0 mph 9.0 mph 57% 0.00 in SCT
15:15 82.4 °F 64.6 °F 29.90 in NNW 3.0 mph 7.0 mph 55% 0.00 in SCT
15:30 82.3 °F 65.5 °F 29.90 in NW 2.0 mph 8.0 mph 57% 0.00 in SCT
15:45 82.2 °F 65.5 °F 29.90 in NNW 1.0 mph 9.0 mph 57% 0.00 in SCT
16:00 82.2 °F 64.9 °F 29.90 in North 1.0 mph 6.0 mph 56% 0.00 in SCT
16:15 82.6 °F 65.8 °F 29.90 in NE 3.0 mph 7.0 mph 57% 0.00 in SCT
16:30 81.9 °F 64.6 °F 29.90 in Calm   8.0 mph 56% 0.00 in SCT
17:00 80.9 °F 65.3 °F 29.90 in WSW 1.0 mph 6.0 mph 59% 0.00 in SCT
17:15 82.4 °F 64.6 °F 29.90 in SE 1.0 mph 10.0 mph 55% 0.00 in SCT
17:30 81.0 °F 63.8 °F 29.89 in NNW 2.0 mph 9.0 mph 56% 0.00 in SCT
17:45 80.4 °F 63.8 °F 29.89 in North 1.0 mph 6.0 mph 57% 0.00 in SCT
18:00 82.0 °F 64.2 °F 29.89 in West 1.0 mph 7.0 mph 55% 0.00 in SCT
18:15 81.5 °F 63.8 °F 29.89 in North 2.0 mph 8.0 mph 55% 0.00 in SCT
18:30 80.9 °F 64.3 °F 29.89 in North 1.0 mph 8.0 mph 57% 0.00 in SCT
18:45 80.6 °F 62.4 °F 29.89 in East 1.0 mph 7.0 mph 54% 0.00 in SCT
19:00 81.4 °F 63.2 °F 29.88 in Calm   4.0 mph 54% 0.00 in SCT
19:15 80.3 °F 62.1 °F 29.89 in SSW 1.0 mph 5.0 mph 54% 0.00 in SCT
19:30 80.0 °F 62.9 °F 29.89 in East 1.0 mph 5.0 mph 56% 0.00 in SCT
19:45 79.4 °F 62.8 °F 29.89 in Calm   7.0 mph 57% 0.00 in SCT
20:00 78.6 °F 62.6 °F 29.89 in SSW 1.0 mph 7.0 mph 58% 0.00 in SCT
20:15 77.2 °F 63.2 °F 29.90 in Calm   4.0 mph 62% 0.00 in FEW
20:30 76.2 °F 63.2 °F 29.90 in Calm   4.0 mph 64% 0.00 in FEW
20:45 75.7 °F 63.1 °F 29.90 in Calm   5.0 mph 65% 0.00 in FEW
21:00 74.6 °F 63.0 °F 29.91 in Calm   2.0 mph 67% 0.00 in FEW
21:15 73.9 °F 63.5 °F 29.92 in Calm   3.0 mph 70% 0.00 in FEW
21:30 72.9 °F 63.3 °F 29.92 in Calm   1.0 mph 72% 0.00 in FEW
21:45 72.5 °F 63.0 °F 29.93 in SW 2.0 mph 6.0 mph 72% 0.00 in FEW
22:00 72.6 °F 63.1 °F 29.93 in Calm   2.0 mph 72% 0.00 in FEW
22:15 72.6 °F 63.1 °F 29.93 in Calm   1.0 mph 72% 0.00 in CLR
22:30 72.0 °F 63.3 °F 29.93 in Calm   1.0 mph 74% 0.00 in CLR
22:45 70.7 °F 63.2 °F 29.93 in Calm     77% 0.00 in CLR
23:00 69.8 °F 63.0 °F 29.93 in Calm     79% 0.00 in CLR
23:15 70.0 °F 62.8 °F 29.93 in Calm     78% 0.00 in CLR
23:30 69.2 °F 63.1 °F 29.93 in Calm   1.0 mph 81% 0.00 in CLR
23:45 69.5 °F 63.1 °F 29.93 in Calm   1.0 mph 80% 0.00 in CLR
TarryTown NY Weather
Compliments of Weather Underground - 1.5 mb